Time;durP1;ratioP1;P1;durP2;ratioP2;P2;SDS_P1;SDS_P2;PMS_P1;PMS_P2;Temp;Humidity;BMP_temperature;BMP_pressure;BME280_temperature;BME280_humidity;BME280_pressure;Samples;Min_cycle;Max_cycle;Signal;HPM_P1;HPM_P2
2022/11/12 00:00:43;;;;;;;0.00;0.00;;;;;;;16.73;75.11;101447.88;7363641;19;20038;-57
2022/11/12 00:03:09;;;;;;;0.00;0.00;;;;;;;16.74;74.74;101445.16;7364009;19;20486;-57
2022/11/12 00:05:35;;;;;;;0.00;0.00;;;;;;;16.74;74.80;101439.88;7364109;19;20006;-57
2022/11/12 00:08:01;;;;;;;0.00;0.00;;;;;;;16.76;74.75;101448.59;7364217;19;20007;-57
2022/11/12 00:10:27;;;;;;;0.00;0.00;;;;;;;16.74;75.18;101439.03;7360143;19;20014;-57
2022/11/12 00:12:52;;;;;;;0.00;0.00;;;;;;;16.65;75.18;101411.16;7362080;19;20014;-56
2022/11/12 00:15:18;;;;;;;0.00;0.00;;;;;;;16.79;75.16;101437.94;7362171;19;20913;-57
2022/11/12 00:17:44;;;;;;;0.00;0.00;;;;;;;16.80;74.65;101444.94;7363633;19;20014;-57
2022/11/12 00:20:10;;;;;;;0.10;0.10;;;;;;;16.80;74.61;101442.28;7361636;19;20006;-57
2022/11/12 00:22:35;;;;;;;0.10;0.10;;;;;;;16.82;74.57;101447.50;7364162;19;20035;-58
2022/11/12 00:25:01;;;;;;;0.10;0.10;;;;;;;16.83;75.15;101443.97;7364020;19;20010;-57
2022/11/12 00:27:26;;;;;;;0.00;0.00;;;;;;;16.83;74.54;101434.28;7359513;19;20010;-55
2022/11/12 00:29:52;;;;;;;0.10;0.10;;;;;;;16.85;74.48;101437.69;7363469;19;20019;-56
2022/11/12 00:32:18;;;;;;;0.00;0.00;;;;;;;16.85;74.94;101435.06;7358759;19;20826;-57
2022/11/12 00:34:44;;;;;;;0.00;0.00;;;;;;;16.87;74.70;101437.63;7363555;19;20037;-57
2022/11/12 00:37:09;;;;;;;0.10;0.10;;;;;;;16.87;74.67;101437.63;7363128;19;20010;-55
2022/11/12 00:39:34;;;;;;;0.03;0.03;;;;;;;16.88;74.65;101435.84;7362441;19;20086;-57
2022/11/12 00:42:00;;;;;;;0.10;0.10;;;;;;;16.89;74.91;101432.31;7362458;19;20037;-55
2022/11/12 00:44:26;;;;;;;0.10;0.10;;;;;;;16.90;74.62;101432.25;7362490;19;20010;-57
2022/11/12 00:46:52;;;;;;;0.10;0.10;;;;;;;16.90;74.55;101429.63;7362300;19;20017;-57
2022/11/12 00:49:17;;;;;;;0.10;0.10;;;;;;;16.91;74.80;101426.06;7361303;19;21840;-57
2022/11/12 00:51:43;;;;;;;0.10;0.10;;;;;;;16.77;74.55;101401.97;7361551;19;20006;-57
2022/11/12 00:54:08;;;;;;;0.10;0.10;;;;;;;16.85;74.78;101421.88;7363512;19;20086;-57
2022/11/12 00:56:34;;;;;;;0.10;0.10;;;;;;;16.92;74.80;101424.28;7360973;19;20021;-57
2022/11/12 00:59:00;;;;;;;0.05;0.05;;;;;;;16.86;74.91;101418.31;7361125;19;20021;-57
2022/11/12 01:01:25;;;;;;;0.00;0.00;;;;;;;16.95;74.90;101430.31;7361543;19;20011;-57
2022/11/12 01:03:52;;;;;;;0.03;0.03;;;;;;;16.91;74.80;101436.63;7362386;19;20023;-57
2022/11/12 01:06:22;;;;;;;0.10;0.10;;;;;;;17.00;74.60;101443.34;7359179;19;20521;-57
2022/11/12 01:08:48;;;;;;;0.10;0.10;;;;;;;16.96;74.93;101433.81;7359456;19;20018;-57
2022/11/12 01:11:20;;;;;;;0.10;0.10;;;;;;;17.01;74.76;101434.50;7362000;19;20775;-57
2022/11/12 01:13:47;;;;;;;0.10;0.10;;;;;;;16.99;74.86;101434.56;7362636;19;20031;-57
2022/11/12 01:16:15;;;;;;;0.10;0.10;;;;;;;16.99;74.21;101423.16;7361663;19;20048;-57
2022/11/12 01:18:42;;;;;;;0.10;0.10;;;;;;;17.01;74.42;101432.72;7360879;19;20006;-56
2022/11/12 01:21:08;;;;;;;0.10;0.10;;;;;;;17.02;74.58;101430.94;7361064;19;20089;-57
2022/11/12 01:23:36;;;;;;;0.10;0.10;;;;;;;17.02;74.52;101423.00;7361758;19;20085;-57
2022/11/12 01:26:14;;;;;;;0.10;0.10;;;;;;;17.03;73.87;101425.63;7363251;19;20049;-57
2022/11/12 01:28:41;;;;;;;0.00;0.00;;;;;;;16.99;74.25;101417.88;7359051;19;20018;-57
2022/11/12 01:31:12;;;;;;;0.10;0.10;;;;;;;17.02;74.11;101423.88;7361704;19;20033;-57
2022/11/12 01:33:38;;;;;;;0.10;0.10;;;;;;;17.00;74.68;101428.34;7361632;19;20082;-57
2022/11/12 01:36:04;;;;;;;0.00;0.00;;;;;;;16.98;74.26;101411.75;7363818;19;20722;-57
2022/11/12 01:38:36;;;;;;;0.10;0.10;;;;;;;17.01;74.29;101426.56;7360002;19;20784;-56
2022/11/12 01:41:03;;;;;;;0.00;0.00;;;;;;;16.98;74.67;101421.41;7361454;19;20006;-57
2022/11/12 01:43:28;;;;;;;0.10;0.10;;;;;;;16.98;74.46;101413.50;7360500;19;21379;-57
2022/11/12 01:45:55;;;;;;;0.05;0.05;;;;;;;16.98;74.35;101418.75;7360166;19;20477;-57
2022/11/12 01:48:32;;;;;;;0.10;0.10;;;;;;;17.01;73.99;101416.88;7361013;19;20023;-56
2022/11/12 01:50:58;;;;;;;0.00;0.00;;;;;;;16.97;74.38;101415.28;7357895;19;20014;-57
2022/11/12 01:53:26;;;;;;;0.10;0.10;;;;;;;16.90;74.75;101391.84;7361207;19;24543;-57
2022/11/12 01:55:52;;;;;;;0.10;0.10;;;;;;;16.91;74.24;101412.00;7354155;19;20043;-56
2022/11/12 01:58:21;;;;;;;0.10;0.10;;;;;;;16.98;74.27;101431.97;7361186;19;20457;-57
2022/11/12 02:00:47;;;;;;;0.00;0.00;;;;;;;16.95;74.57;101434.72;7360777;19;20032;-57
2022/11/12 02:03:19;;;;;;;0.10;0.10;;;;;;;16.96;74.25;101433.81;7359793;19;20098;-57
2022/11/12 02:05:48;;;;;;;0.00;0.00;;;;;;;16.94;74.64;101435.66;7360313;19;20014;-57
2022/11/12 02:08:14;;;;;;;0.10;0.10;;;;;;;16.91;74.65;101430.47;7360468;19;20924;-57
2022/11/12 02:10:39;;;;;;;0.10;0.10;;;;;;;16.90;74.47;101426.13;7359584;19;20070;-58
2022/11/12 02:15:51;;;;;;;0.00;0.00;;;;;;;16.89;74.87;101427.06;7355750;19;20468;-56
2022/11/12 02:18:17;;;;;;;0.03;0.03;;;;;;;16.87;74.53;101424.44;7360996;19;20010;-57
2022/11/12 02:20:42;;;;;;;0.00;0.00;;;;;;;16.86;74.99;101433.28;7367245;19;20057;-56
2022/11/12 02:23:07;;;;;;;0.10;0.10;;;;;;;16.84;74.49;101436.00;7367111;19;22423;-57
2022/11/12 02:25:34;;;;;;;0.10;0.10;;;;;;;16.85;74.18;101432.44;7366095;19;20045;-57
2022/11/12 02:28:01;;;;;;;0.00;0.00;;;;;;;16.84;74.49;101425.44;7366339;19;20030;-56
2022/11/12 02:30:38;;;;;;;0.00;0.00;;;;;;;16.86;74.50;101426.22;7364298;19;20011;-57
2022/11/12 02:33:03;;;;;;;0.10;0.10;;;;;;;16.82;74.48;101427.25;7365112;19;20014;-57
2022/11/12 02:35:30;;;;;;;0.00;0.00;;;;;;;16.73;74.73;101416.22;7369378;19;20037;-56
2022/11/12 02:37:55;;;;;;;0.10;0.10;;;;;;;16.81;74.94;101436.09;7369256;19;20730;-57
2022/11/12 02:40:21;;;;;;;0.10;0.10;;;;;;;16.81;74.45;101436.09;7368131;19;20015;-55
2022/11/12 02:42:47;;;;;;;0.10;0.10;;;;;;;16.82;74.89;101447.50;7367275;19;20077;-57
2022/11/12 02:45:13;;;;;;;0.08;0.08;;;;;;;16.81;74.97;101446.63;7365409;19;21156;-57
2022/11/12 02:47:38;;;;;;;0.03;0.03;;;;;;;16.82;74.86;101443.09;7366906;19;20002;-57
2022/11/12 02:50:04;;;;;;;0.10;0.10;;;;;;;16.83;75.02;101431.63;7369477;19;20011;-57
2022/11/12 02:52:29;;;;;;;0.00;0.00;;;;;;;16.83;74.67;101431.63;7368025;19;20347;-57
2022/11/12 02:54:55;;;;;;;0.10;0.10;;;;;;;16.84;74.85;101430.72;7367311;19;20485;-57
2022/11/12 02:57:20;;;;;;;0.00;0.00;;;;;;;16.81;74.30;101415.00;7367652;19;20010;-57
2022/11/12 02:59:46;;;;;;;0.10;0.10;;;;;;;16.85;74.54;101410.47;7357561;19;20120;-57
2022/11/12 03:02:11;;;;;;;0.00;0.00;;;;;;;16.85;74.16;101411.31;7366493;19;20015;-57
2022/11/12 03:04:36;;;;;;;0.00;0.00;;;;;;;16.86;74.29;101410.41;7363464;19;20422;-57
2022/11/12 03:07:02;;;;;;;0.00;0.00;;;;;;;16.90;73.89;101410.28;7366454;19;20466;-57
2022/11/12 03:09:27;;;;;;;0.00;0.00;;;;;;;16.89;73.81;101400.66;7363722;19;20121;-57
2022/11/12 03:11:53;;;;;;;0.10;0.10;;;;;;;16.90;73.40;101405.03;7364956;19;20014;-57
2022/11/12 03:14:18;;;;;;;0.10;0.10;;;;;;;16.91;73.28;101404.09;7364472;19;20010;-57
2022/11/12 03:16:44;;;;;;;0.10;0.10;;;;;;;16.86;73.23;101407.75;7365276;19;20010;-57
2022/11/12 03:19:09;;;;;;;0.10;0.10;;;;;;;16.93;72.85;101404.88;7364904;19;20010;-57
2022/11/12 03:21:34;;;;;;;0.00;0.00;;;;;;;16.92;72.63;101411.09;7364401;19;20478;-54
2022/11/12 03:24:01;;;;;;;0.10;0.10;;;;;;;16.91;72.35;101410.22;7367218;19;20015;-57
2022/11/12 03:26:26;;;;;;;0.10;0.10;;;;;;;16.91;72.19;101406.75;7362201;19;20011;-57
2022/11/12 03:28:51;;;;;;;0.10;0.10;;;;;;;16.91;72.48;101404.09;7362774;19;20033;-57
2022/11/12 03:31:17;;;;;;;0.10;0.10;;;;;;;16.90;72.32;101397.09;7364230;19;20006;-57
2022/11/12 03:33:42;;;;;;;0.00;0.00;;;;;;;16.90;72.50;101397.09;7366203;19;20060;-57
2022/11/12 03:36:08;;;;;;;0.00;0.00;;;;;;;16.90;72.08;101395.31;7364828;19;20014;-54
2022/11/12 03:38:33;;;;;;;0.00;0.00;;;;;;;16.89;72.04;101401.53;7365071;19;20014;-56
2022/11/12 03:40:59;;;;;;;0.05;0.05;;;;;;;16.86;72.32;101397.22;7366691;19;20025;-55
2022/11/12 03:43:24;;;;;;;0.00;0.00;;;;;;;16.88;72.03;101409.47;7362785;19;20007;-57
2022/11/12 03:45:50;;;;;;;0.10;0.10;;;;;;;16.86;72.39;101402.50;7364907;19;20015;-56
2022/11/12 03:48:15;;;;;;;0.00;0.00;;;;;;;16.84;72.15;101404.34;7364078;19;20006;-57
2022/11/12 03:50:41;;;;;;;0.00;0.00;;;;;;;16.76;72.12;101389.69;7364859;19;20018;-57
2022/11/12 03:53:07;;;;;;;0.10;0.10;;;;;;;16.83;72.35;101405.25;7363008;19;20101;-57
2022/11/12 03:55:32;;;;;;;0.10;0.10;;;;;;;16.84;72.20;101404.34;7365027;19;21941;-57
2022/11/12 03:57:58;;;;;;;0.05;0.05;;;;;;;16.85;72.28;101402.56;7365657;19;20013;-57
2022/11/12 04:00:26;;;;;;;0.03;0.03;;;;;;;16.86;72.48;101401.63;7363618;19;20893;-57
2022/11/12 04:02:52;;;;;;;0.10;0.10;;;;;;;16.81;72.67;101407.06;7366667;19;20059;-57
2022/11/12 04:10:48;;;;;;;0.10;0.10;;;;;;;16.82;72.27;101416.69;7364912;19;20032;-57
2022/11/12 04:13:26;;;;;;;0.10;0.10;;;;;;;16.81;72.51;101420.25;7364682;19;23107;-57
2022/11/12 04:21:49;;;;;;;0.10;0.10;;;;;;;16.70;72.48;101406.59;7363291;19;20031;-57
2022/11/12 04:26:21;;;;;;;0.10;0.10;;;;;;;16.77;72.63;101429.19;7364743;19;20016;-57
2022/11/12 04:26:54;;;;;;;0.10;0.10;;;;;;;16.78;72.80;101428.31;7365703;19;20078;-57
2022/11/12 04:32:03;;;;;;;0.10;0.10;;;;;;;16.78;72.93;101420.41;7363954;19;20017;-57
2022/11/12 04:34:29;;;;;;;0.10;0.10;;;;;;;16.79;72.65;101423.88;7366606;19;20018;-57
2022/11/12 04:36:54;;;;;;;0.10;0.10;;;;;;;16.79;72.63;101415.97;7363786;19;20014;-58
2022/11/12 04:39:20;;;;;;;0.10;0.10;;;;;;;16.72;72.08;101404.78;7364010;19;20060;-57
2022/11/12 04:47:13;;;;;;;0.03;0.03;;;;;;;16.81;71.71;101419.41;7363568;19;20698;-57
2022/11/12 04:49:39;;;;;;;0.00;0.00;;;;;;;16.79;71.18;101435.31;7362571;19;20014;-57
2022/11/12 04:52:04;;;;;;;0.05;0.05;;;;;;;16.77;71.30;101418.66;7362308;19;20010;-56
2022/11/12 04:54:30;;;;;;;0.00;0.00;;;;;;;16.77;71.04;101431.84;7361996;19;20039;-57
2022/11/12 04:56:56;;;;;;;0.00;0.00;;;;;;;16.78;71.00;101436.22;7364042;19;20049;-57
2022/11/12 04:59:21;;;;;;;0.10;0.10;;;;;;;16.76;70.73;101431.91;7360583;19;20021;-56
2022/11/12 05:01:47;;;;;;;0.00;0.00;;;;;;;16.75;70.86;101436.31;7363415;19;20019;-57
2022/11/12 05:04:12;;;;;;;0.10;0.10;;;;;;;16.67;71.07;101421.66;7361512;19;20011;-57
2022/11/12 05:06:53;;;;;;;0.00;0.00;;;;;;;16.74;71.02;101431.97;7361720;19;20022;-57
2022/11/12 05:09:20;;;;;;;0.10;0.10;;;;;;;16.74;71.15;101439.88;7360206;19;20015;-57
2022/11/12 05:11:46;;;;;;;0.10;0.10;;;;;;;16.73;70.78;101429.41;7358777;19;20031;-57
2022/11/12 05:14:12;;;;;;;0.00;0.00;;;;;;;16.69;70.80;101425.97;7361161;19;20818;-57
2022/11/12 05:16:38;;;;;;;0.10;0.10;;;;;;;16.65;70.87;101413.81;7360460;19;20130;-57
2022/11/12 05:19:03;;;;;;;0.00;0.00;;;;;;;16.68;70.94;101428.66;7361785;19;20018;-57
2022/11/12 05:24:13;;;;;;;0.10;0.10;;;;;;;16.64;71.25;101430.56;7359500;19;20518;-57
2022/11/12 05:26:39;;;;;;;0.00;0.00;;;;;;;16.62;71.29;101435.00;7361151;19;20411;-57
2022/11/12 05:29:04;;;;;;;0.10;0.10;;;;;;;16.61;71.14;101428.88;7361703;19;20077;-57
2022/11/12 05:31:30;;;;;;;0.10;0.10;;;;;;;16.61;71.04;101435.94;7360608;19;20014;-56
2022/11/12 05:33:56;;;;;;;0.10;0.10;;;;;;;16.60;70.71;101426.28;7360002;19;20007;-57
2022/11/12 05:36:21;;;;;;;0.03;0.03;;;;;;;16.58;70.70;101429.00;7358069;19;20018;-57
2022/11/12 05:38:47;;;;;;;0.10;0.10;;;;;;;16.59;70.92;101429.84;7358615;19;20042;-57
2022/11/12 05:41:12;;;;;;;0.05;0.05;;;;;;;16.58;71.24;101436.06;7362460;19;20917;-57
2022/11/12 05:43:38;;;;;;;0.00;0.00;;;;;;;16.55;70.94;101429.09;7360714;19;20018;-57
2022/11/12 05:46:03;;;;;;;0.10;0.10;;;;;;;16.54;71.21;101415.97;7360468;19;20014;-57
2022/11/12 05:48:29;;;;;;;0.00;0.00;;;;;;;16.45;70.95;101393.44;7360929;19;20018;-58
2022/11/12 05:50:54;;;;;;;0.00;0.00;;;;;;;16.46;71.06;101403.06;7359334;19;20119;-56
2022/11/12 05:53:20;;;;;;;0.10;0.10;;;;;;;16.52;71.12;101423.91;7364603;19;20022;-57
2022/11/12 05:55:45;;;;;;;0.10;0.10;;;;;;;16.57;71.17;101429.03;7364610;19;20036;-56
2022/11/12 05:58:11;;;;;;;0.00;0.00;;;;;;;16.55;70.97;101417.69;7366597;19;20031;-57
2022/11/12 06:00:39;;;;;;;0.00;0.00;;;;;;;16.56;71.09;101427.31;7367268;19;20010;-57
2022/11/12 06:03:06;;;;;;;0.10;0.10;;;;;;;16.54;71.18;101421.25;7365788;19;20033;-57
2022/11/12 06:05:32;;;;;;;0.10;0.10;;;;;;;16.49;71.29;101418.78;7366105;19;21837;-57
2022/11/12 06:07:58;;;;;;;0.00;0.00;;;;;;;16.53;70.83;101416.91;7364606;19;20434;-57
2022/11/12 06:10:24;;;;;;;0.10;0.10;;;;;;;16.52;71.20;101412.53;7364831;19;20010;-57
2022/11/12 06:12:51;;;;;;;0.10;0.10;;;;;;;16.52;71.13;101407.25;7366182;19;20029;-58
2022/11/12 06:15:17;;;;;;;0.00;0.00;;;;;;;16.51;70.90;101413.44;7366585;19;20451;-57
2022/11/12 06:17:42;;;;;;;0.10;0.10;;;;;;;16.51;70.97;101405.53;7366215;19;20027;-57
2022/11/12 06:20:08;;;;;;;0.00;0.00;;;;;;;16.47;70.99;101406.56;7367148;19;20039;-60
2022/11/12 06:22:33;;;;;;;0.10;0.10;;;;;;;16.49;70.85;101397.69;7366866;19;20057;-57
2022/11/12 06:24:59;;;;;;;0.00;0.00;;;;;;;16.51;70.80;101401.13;7366841;19;20003;-55
2022/11/12 06:27:25;;;;;;;0.08;0.08;;;;;;;16.51;70.70;101397.63;7366453;19;20010;-57
2022/11/12 06:29:50;;;;;;;0.10;0.10;;;;;;;16.49;71.05;101408.22;7363699;19;20080;-57
2022/11/12 06:32:16;;;;;;;0.08;0.08;;;;;;;16.50;70.60;101414.34;7364801;19;20018;-57
2022/11/12 06:34:41;;;;;;;0.10;0.10;;;;;;;16.51;70.90;101416.06;7366608;19;20070;-57
2022/11/12 06:37:07;;;;;;;0.10;0.10;;;;;;;16.49;71.03;101404.75;7362250;19;20017;-57
2022/11/12 06:39:32;;;;;;;0.03;0.03;;;;;;;16.50;70.80;101403.81;7365267;19;20010;-57
2022/11/12 06:41:58;;;;;;;0.10;0.10;;;;;;;16.50;71.05;101403.81;7367282;19;20029;-57
2022/11/12 06:44:23;;;;;;;0.10;0.10;;;;;;;16.48;71.08;101389.84;7365260;19;20846;-57
2022/11/12 06:46:49;;;;;;;0.08;0.08;;;;;;;16.47;71.38;101393.38;7366858;19;20011;-56
2022/11/12 06:49:14;;;;;;;0.10;0.10;;;;;;;16.46;71.02;101389.03;7363511;19;20020;-58
2022/11/12 06:51:40;;;;;;;0.00;0.00;;;;;;;16.41;71.13;101383.06;7366849;19;20027;-57
2022/11/12 06:54:05;;;;;;;0.00;0.00;;;;;;;16.42;71.60;101390.91;7364502;19;20003;-57
2022/11/12 06:56:31;;;;;;;0.10;0.10;;;;;;;16.42;71.22;101395.31;7366133;19;20018;-57
2022/11/12 06:58:57;;;;;;;0.00;0.00;;;;;;;16.40;71.32;101398.00;7356043;19;20590;-57
2022/11/12 07:01:23;;;;;;;0.00;0.00;;;;;;;16.39;71.91;101411.25;7364091;19;20067;-57
2022/11/12 07:03:51;;;;;;;0.00;0.00;;;;;;;16.39;71.53;101406.84;7363638;19;20014;-57
2022/11/12 07:06:19;;;;;;;0.10;0.10;;;;;;;16.34;71.92;101406.16;7364245;19;20085;-57
2022/11/12 07:08:45;;;;;;;0.00;0.00;;;;;;;16.37;72.06;101413.06;7364857;19;20723;-56
2022/11/12 07:11:11;;;;;;;0.00;0.00;;;;;;;16.34;71.60;101411.41;7365573;19;20019;-57
2022/11/12 07:13:36;;;;;;;0.10;0.10;;;;;;;16.35;72.01;101413.13;7364473;19;20758;-57
2022/11/12 07:16:04;;;;;;;0.10;0.10;;;;;;;16.33;72.03;101413.19;7365449;19;20044;-56
2022/11/12 07:18:30;;;;;;;0.10;0.10;;;;;;;16.30;71.79;101412.44;7362477;19;20010;-58
2022/11/12 07:21:05;;;;;;;0.00;0.00;;;;;;;16.37;71.47;101410.44;7365024;19;20006;-57
2022/11/12 07:23:33;;;;;;;0.00;0.00;;;;;;;16.33;71.36;101407.91;7361391;19;20476;-57
2022/11/12 07:25:59;;;;;;;;;;;;;;;16.37;70.60;101424.47;7363900;19;20020;-56
2022/11/12 07:28:25;;;;;;;0.10;0.10;;;;;;;16.28;71.49;101409.84;7362089;19;19995;-57
2022/11/12 07:30:58;;;;;;;0.10;0.10;;;;;;;16.27;71.24;101412.53;7364154;19;20533;-56
2022/11/12 07:33:23;;;;;;;0.00;0.00;;;;;;;16.22;71.70;101431.16;7362814;19;20014;-57
2022/11/12 07:35:56;;;;;;;0.00;0.00;;;;;;;16.23;71.49;101426.75;7364730;19;20022;-57
2022/11/12 07:38:21;;;;;;;0.00;0.00;;;;;;;16.18;71.62;101424.28;7362932;19;20015;-57
2022/11/12 07:40:47;;;;;;;0.00;0.00;;;;;;;16.15;71.83;101424.38;7364398;19;20097;-57
2022/11/12 07:43:12;;;;;;;0.10;0.10;;;;;;;16.14;71.80;101440.22;7364321;19;20018;-57
2022/11/12 07:45:38;;;;;;;0.10;0.10;;;;;;;16.13;71.61;101435.88;7364386;19;20019;-57
2022/11/12 07:48:04;;;;;;;0.00;0.00;;;;;;;16.10;71.90;101439.47;7361168;19;20022;-56
2022/11/12 07:50:29;;;;;;;0.00;0.00;;;;;;;16.08;71.63;101439.53;7365275;19;20018;-56
2022/11/12 07:52:58;;;;;;;0.10;0.10;;;;;;;16.10;71.44;101442.09;7359268;19;20043;-57
2022/11/12 07:55:23;;;;;;;0.00;0.00;;;;;;;16.07;71.34;101436.97;7363533;19;20029;-57
2022/11/12 07:57:49;;;;;;;0.00;0.00;;;;;;;16.05;71.61;101428.22;7360228;19;20472;-57
2022/11/12 08:00:14;;;;;;;0.08;0.08;;;;;;;16.07;72.02;101436.97;7363233;19;20019;-57
2022/11/12 08:02:40;;;;;;;0.08;0.08;;;;;;;16.00;71.33;101435.41;7364720;19;20069;-57
2022/11/12 08:05:06;;;;;;;0.10;0.10;;;;;;;16.06;71.74;101446.59;7363373;19;20044;-57
2022/11/12 08:07:31;;;;;;;0.00;0.00;;;;;;;16.02;71.65;101445.00;7362498;19;20010;-56
2022/11/12 08:09:57;;;;;;;0.00;0.00;;;;;;;16.05;71.20;101454.56;7363119;19;20015;-57
2022/11/12 08:12:23;;;;;;;0.10;0.10;;;;;;;16.04;71.68;101452.84;7362190;19;20510;-57
2022/11/12 08:14:48;;;;;;;0.00;0.00;;;;;;;16.03;71.41;101466.94;7362013;19;20019;-57
2022/11/12 08:17:14;;;;;;;0.00;0.00;;;;;;;16.02;71.77;101462.59;7358705;19;20036;-57
2022/11/12 08:19:39;;;;;;;0.00;0.00;;;;;;;16.01;71.68;101474.03;7360268;19;20029;-56
2022/11/12 08:22:05;;;;;;;0.10;0.10;;;;;;;16.00;71.84;101464.41;7362503;19;20006;-54
2022/11/12 08:24:30;;;;;;;0.00;0.00;;;;;;;16.00;71.84;101472.31;7359665;19;20022;-57
2022/11/12 08:26:56;;;;;;;0.00;0.00;;;;;;;16.01;71.48;101468.75;7362140;19;20015;-56
2022/11/12 08:29:24;;;;;;;0.10;0.10;;;;;;;15.99;71.20;101475.84;7361553;19;20750;-55
2022/11/12 08:31:49;;;;;;;0.00;0.00;;;;;;;15.99;71.42;101470.59;7362603;19;20024;-57
2022/11/12 08:34:15;;;;;;;0.00;0.00;;;;;;;15.99;71.42;101476.72;7361404;19;20062;-56
2022/11/12 08:36:40;;;;;;;0.10;0.10;;;;;;;16.01;71.04;101484.56;7360423;19;20518;-58
2022/11/12 08:39:06;;;;;;;0.10;0.10;;;;;;;16.01;70.86;101495.09;7357463;19;20396;-57
2022/11/12 08:41:32;;;;;;;0.00;0.00;;;;;;;16.00;70.89;101488.09;7364446;19;20013;-57
2022/11/12 08:43:58;;;;;;;0.10;0.10;;;;;;;15.87;71.06;101476.28;7362654;19;20031;-57
2022/11/12 08:46:24;;;;;;;0.10;0.10;;;;;;;15.99;70.69;101502.19;7361249;19;20014;-55
2022/11/12 08:48:49;;;;;;;0.00;0.00;;;;;;;15.98;70.96;101500.47;7341101;19;20021;-57
2022/11/12 08:51:15;;;;;;;0.10;0.10;;;;;;;15.98;70.51;101495.22;7361945;19;20026;-57
2022/11/12 08:53:40;;;;;;;0.10;0.10;;;;;;;15.97;70.61;101499.63;7363309;19;20006;-56
2022/11/12 08:56:06;;;;;;;0.10;0.10;;;;;;;15.97;71.04;101498.75;7360508;19;20002;-57
2022/11/12 08:58:31;;;;;;;0.10;0.10;;;;;;;15.95;70.64;101496.16;7357358;19;20023;-57
2022/11/12 09:01:03;;;;;;;0.10;0.10;;;;;;;15.98;71.11;101503.13;7358280;19;20011;-57
2022/11/12 09:03:29;;;;;;;0.00;0.00;;;;;;;15.94;71.02;101493.59;7359795;19;20015;-57
2022/11/12 09:05:54;;;;;;;0.10;0.10;;;;;;;15.96;70.65;101497.00;7358748;19;20022;-58
2022/11/12 09:08:22;;;;;;;0.00;0.00;;;;;;;15.97;70.62;101510.16;7359405;19;20017;-59
2022/11/12 09:10:49;;;;;;;0.00;0.00;;;;;;;15.95;70.45;101495.31;7357750;19;20075;-59
2022/11/12 09:13:18;;;;;;;0.00;0.00;;;;;;;15.95;70.03;101505.84;7346856;19;20146;-59
2022/11/12 09:15:45;;;;;;;0.03;0.03;;;;;;;15.93;70.35;101495.34;7354158;19;20019;-59
2022/11/12 09:18:16;;;;;;;0.10;0.10;;;;;;;15.95;70.51;101479.50;7356892;19;20026;-58
2022/11/12 09:20:42;;;;;;;0.00;0.00;;;;;;;15.93;70.19;101483.97;7352877;19;20027;-59
2022/11/12 09:23:10;;;;;;;0.00;0.00;;;;;;;15.92;70.21;101479.63;7355707;19;20019;-59
2022/11/12 09:25:36;;;;;;;0.10;0.10;;;;;;;15.82;69.85;101474.63;7354539;19;20597;-59
2022/11/12 09:28:07;;;;;;;0.00;0.00;;;;;;;15.93;69.92;101497.13;7356134;19;20094;-59
2022/11/12 09:30:33;;;;;;;0.10;0.10;;;;;;;15.91;69.83;101498.94;7353802;19;20010;-58
2022/11/12 09:32:58;;;;;;;0.10;0.10;;;;;;;15.91;69.55;101499.78;7355707;19;20045;-59
2022/11/12 09:35:24;;;;;;;0.10;0.10;;;;;;;15.91;69.75;101504.19;7353423;19;20006;-59
2022/11/12 09:37:49;;;;;;;0.10;0.10;;;;;;;15.92;69.67;101505.94;7355138;19;20084;-58
2022/11/12 09:40:17;;;;;;;0.10;0.10;;;;;;;15.95;69.05;101516.38;7351983;19;20014;-59
2022/11/12 09:42:50;;;;;;;0.10;0.10;;;;;;;15.95;68.96;101521.66;7353492;19;20026;-58
2022/11/12 09:45:28;;;;;;;0.10;0.10;;;;;;;15.97;69.40;101520.69;7356558;19;20011;-59
2022/11/12 09:48:00;;;;;;;0.10;0.10;;;;;;;15.96;69.26;101526.84;7354409;19;20820;-57
2022/11/12 09:50:33;;;;;;;0.00;0.00;;;;;;;15.98;69.05;101521.56;7354652;19;20051;-59
2022/11/12 09:53:23;;;;;;;0.10;0.10;;;;;;;16.00;69.37;101519.72;7356625;19;20011;-57
2022/11/12 09:55:49;;;;;;;0.10;0.10;;;;;;;15.96;68.66;101523.34;7351544;19;20018;-57
2022/11/12 09:58:17;;;;;;;0.10;0.10;;;;;;;16.00;68.84;101525.00;7353269;19;20473;-57
2022/11/12 10:00:51;;;;;;;0.10;0.10;;;;;;;16.01;69.02;101516.16;7356633;19;21146;-58
2022/11/12 10:03:36;;;;;;;0.00;0.00;;;;;;;16.04;69.20;101518.72;7355648;19;20011;-57
2022/11/12 10:06:14;;;;;;;0.05;0.05;;;;;;;16.03;68.82;101520.50;7356581;19;20006;-55
2022/11/12 10:09:20;;;;;;;0.00;0.00;;;;;;;16.06;69.23;101516.88;7358700;19;20011;-57
2022/11/12 10:14:42;;;;;;;0.10;0.10;;;;;;;16.11;69.10;101514.09;7358671;19;20021;-57
2022/11/12 10:17:36;;;;;;;0.10;0.10;;;;;;;16.14;69.43;101506.97;7359500;19;20030;-57
2022/11/12 10:20:24;;;;;;;0.00;0.00;;;;;;;16.12;69.19;101508.81;7256007;19;2004310;-57
2022/11/12 10:22:58;;;;;;;0.03;0.03;;;;;;;16.20;69.06;101506.75;7252664;19;2004485;-56
2022/11/12 10:25:24;;;;;;;0.10;0.10;;;;;;;16.28;69.01;101515.28;7356457;19;20904;-57
2022/11/12 10:27:54;;;;;;;0.00;0.00;;;;;;;16.39;68.72;101521.97;7359266;19;20987;-56
2022/11/12 10:30:23;;;;;;;0.03;0.03;;;;;;;16.45;68.38;101511.22;7336464;19;20013;-57
2022/11/12 10:32:50;;;;;;;0.10;0.10;;;;;;;16.44;68.63;101517.41;7358956;19;20061;-56
2022/11/12 10:35:18;;;;;;;0.03;0.03;;;;;;;16.63;68.72;101520.28;7356829;19;20019;-57
2022/11/12 10:37:50;;;;;;;0.00;0.00;;;;;;;16.67;67.89;101517.44;7355164;19;20010;-57
2022/11/12 10:40:27;;;;;;;0.00;0.00;;;;;;;16.75;68.24;101526.00;7361796;19;20037;-56
2022/11/12 10:43:01;;;;;;;0.10;0.10;;;;;;;16.78;67.61;101525.03;7362015;19;20018;-57
2022/11/12 10:45:27;;;;;;;0.10;0.10;;;;;;;16.77;67.53;101524.16;7364789;19;20018;-57
2022/11/12 10:47:53;;;;;;;0.10;0.10;;;;;;;16.79;67.44;101517.06;7362569;19;20028;-55
2022/11/12 10:50:21;;;;;;;0.10;0.10;;;;;;;16.82;66.90;101522.22;7365597;19;20454;-55
2022/11/12 10:53:02;;;;;;;0.10;0.10;;;;;;;16.89;67.49;101519.38;7364902;19;20046;-57
2022/11/12 10:55:35;;;;;;;0.05;0.05;;;;;;;16.92;67.00;101511.34;7364672;19;20085;-57
2022/11/12 10:58:04;;;;;;;0.00;0.00;;;;;;;16.96;67.33;101503.25;7365411;19;20021;-57
2022/11/12 11:00:30;;;;;;;0.10;0.10;;;;;;;17.08;67.11;101505.47;7365245;19;20013;-57
2022/11/12 11:02:56;;;;;;;0.00;0.00;;;;;;;17.28;67.42;101491.50;7366624;19;20041;-57
2022/11/12 11:05:49;;;;;;;0.00;0.00;;;;;;;17.63;68.88;101489.28;7363864;19;20018;-57
2022/11/12 11:08:34;;;;;;;0.10;0.10;;;;;;;18.00;68.38;101493.13;7259314;19;2004257;-56
2022/11/12 11:11:15;;;;;;;0.10;0.10;;;;;;;18.37;67.67;101485.38;7360552;19;20596;-57
2022/11/12 11:13:42;;;;;;;0.10;0.10;;;;;;;18.65;64.53;101476.22;7362731;19;20118;-57
2022/11/12 11:16:20;;;;;;;0.10;0.10;;;;;;;19.04;64.99;101472.78;7364137;19;20030;-56
2022/11/12 11:18:53;;;;;;;0.10;0.10;;;;;;;19.21;62.91;101469.34;7364523;19;20006;-57
2022/11/12 11:21:36;;;;;;;0.10;0.10;;;;;;;19.40;63.73;101465.75;7362351;19;20034;-56
2022/11/12 11:24:35;;;;;;;0.00;0.00;;;;;;;19.59;63.50;101455.19;7364762;19;20010;-57
2022/11/12 11:27:03;;;;;;;0.10;0.10;;;;;;;19.79;62.31;101462.16;7263828;19;2004276;-57
2022/11/12 11:30:06;;;;;;;0.03;0.03;;;;;;;20.10;63.83;101465.94;7362570;19;20006;-57
2022/11/12 11:32:34;;;;;;;0.08;0.08;;;;;;;20.35;60.26;101466.41;7260754;19;2004356;-57
2022/11/12 11:35:18;;;;;;;0.00;0.00;;;;;;;20.64;62.34;101461.44;7363941;19;20485;-57
2022/11/12 11:38:01;;;;;;;0.10;0.10;;;;;;;20.81;58.45;101464.03;7363315;19;20671;-57
2022/11/12 11:40:30;;;;;;;0.10;0.10;;;;;;;20.98;58.12;101450.72;7364147;19;20031;-57
2022/11/12 11:43:17;;;;;;;0.10;0.10;;;;;;;21.22;58.21;101450.31;7363293;19;20017;-57
2022/11/12 11:45:55;;;;;;;0.10;0.10;;;;;;;21.37;58.65;101457.47;7364367;19;20015;-57
2022/11/12 11:48:41;;;;;;;0.10;0.10;;;;;;;21.44;56.95;101432.28;7361188;19;20052;-56
2022/11/12 11:51:28;;;;;;;0.10;0.10;;;;;;;21.35;56.50;101422.16;7363241;19;20007;-57
2022/11/12 11:54:24;;;;;;;0.10;0.10;;;;;;;21.36;56.80;101439.81;7363080;19;20018;-57
2022/11/12 11:56:53;;;;;;;0.10;0.10;;;;;;;21.09;54.00;101404.13;7263717;19;2004483;-57